Time;durP1;ratioP1;P1;durP2;ratioP2;P2;SDS_P1;SDS_P2;PMS_P1;PMS_P2;Temp;Humidity;BMP_temperature;BMP_pressure;BME280_temperature;BME280_humidity;BME280_pressure;Samples;Min_cycle;Max_cycle;Signal;HPM_P1;HPM_P2
2021/04/21 00:01:25;;;;;;;16.03;11.90;;;6.00;53.90;;;;;;4813501;28;20204;-76
2021/04/21 00:03:49;;;;;;;15.67;11.27;;;5.90;50.50;;;;;;4815334;28;20780;-77
2021/04/21 00:06:13;;;;;;;13.73;10.87;;;5.80;51.70;;;;;;4831423;28;20669;-77
2021/04/21 00:08:37;;;;;;;12.33;9.93;;;5.80;84.60;;;;;;4814957;28;20208;-74
2021/04/21 00:11:00;;;;;;;16.23;12.07;;;5.80;90.30;;;;;;4815613;28;20207;-78
2021/04/21 00:13:23;;;;;;;13.80;11.17;;;5.80;86.30;;;;;;4805690;28;20275;-75
2021/04/21 00:15:45;;;;;;;11.60;10.37;;;;;;;;;;4797655;28;20583;-76
2021/04/21 00:18:08;;;;;;;16.40;12.93;;;5.80;99.90;;;;;;4828376;28;20214;-76
2021/04/21 00:20:31;;;;;;;14.33;12.00;;;5.90;99.90;;;;;;4833021;28;20714;-76
2021/04/21 00:22:56;;;;;;;13.60;11.47;;;6.00;99.90;;;;;;4817407;28;20195;-77
2021/04/21 00:25:19;;;;;;;16.10;12.03;;;5.90;99.90;;;;;;4815832;28;20842;-76
2021/04/21 00:27:42;;;;;;;15.57;11.80;;;6.10;99.90;;;;;;4816437;28;20211;-77
2021/04/21 00:30:08;;;;;;;14.37;11.90;;;6.10;99.90;;;;;;4806160;28;20524;-75
2021/04/21 00:32:34;;;;;;;14.07;11.87;;;6.90;99.90;;;;;;4816449;28;20274;-76
2021/04/21 00:34:58;;;;;;;12.83;11.33;;;6.10;99.90;;;;;;4818470;28;20179;-74
2021/04/21 00:37:25;;;;;;;14.47;11.63;;;6.10;99.90;;;;;;4815475;28;20323;-74
2021/04/21 00:39:47;;;;;;;14.93;12.40;;;;;;;;;;4815877;28;20203;-75
2021/04/21 00:42:24;;;;;;;14.97;12.33;;;6.20;99.90;;;;;;4812371;28;20278;-76
2021/04/21 00:44:54;;;;;;;13.67;12.03;;;6.20;99.90;;;;;;4804797;28;20254;-76
2021/04/21 00:47:25;;;;;;;12.70;11.37;;;5.60;99.90;;;;;;4814004;28;20219;-75
2021/04/21 00:49:51;;;;;;;13.40;11.73;;;6.10;99.90;;;;;;4816645;28;20637;-75
2021/04/21 00:52:19;;;;;;;12.47;10.87;;;6.30;99.90;;;;;;4815005;28;20211;-76
2021/04/21 00:54:48;;;;;;;13.90;10.43;;;6.10;97.00;;;;;;4800399;28;20669;-77
2021/04/21 00:57:22;;;;;;;18.83;12.63;;;6.10;99.90;;;;;;4809634;28;20200;-76
2021/04/21 01:00:07;;;;;;;12.53;11.23;;;6.00;95.40;;;;;;4782254;28;20201;-77
2021/04/21 01:02:44;;;;;;;12.17;10.57;;;6.10;99.90;;;;;;4800383;28;20196;-76
2021/04/21 01:05:12;;;;;;;14.43;11.20;;;5.90;99.90;;;;;;4794073;28;20247;-77
2021/04/21 01:07:35;;;;;;;18.20;13.17;;;5.90;99.90;;;;;;4813259;28;20211;-76
2021/04/21 01:09:58;;;;;;;15.47;12.23;;;5.70;96.40;;;;;;4817061;28;20191;-75
2021/04/21 01:12:24;;;;;;;16.77;12.53;;;5.70;99.20;;;;;;4815894;28;20274;-75
2021/04/21 01:14:52;;;;;;;14.00;12.03;;;6.20;99.90;;;;;;4801278;28;20204;-75
2021/04/21 01:17:17;;;;;;;16.53;13.20;;;5.60;99.90;;;;;;4799259;28;20191;-76
2021/04/21 01:19:56;;;;;;;15.97;13.13;;;5.70;99.90;;;;;;4816525;28;20705;-76
2021/04/21 01:22:26;;;;;;;20.70;14.07;;;5.80;99.90;;;;;;4798829;28;20199;-75
2021/04/21 01:24:55;;;;;;;16.27;13.40;;;6.00;99.90;;;;;;4807314;28;21786;-75
2021/04/21 01:27:21;;;;;;;17.97;13.87;;;5.80;99.90;;;;;;4802660;28;20220;-75
2021/04/21 01:29:47;;;;;;;17.37;14.60;;;5.90;99.90;;;;;;4819250;28;20203;-76
2021/04/21 01:32:13;;;;;;;19.47;14.97;;;5.80;99.90;;;;;;4820622;28;20195;-76
2021/04/21 01:34:38;;;;;;;15.63;14.03;;;5.80;99.90;;;;;;4812762;28;20239;-75
2021/04/21 01:37:04;;;;;;;21.70;16.37;;;5.80;99.90;;;;;;4809117;28;20187;-75
2021/04/21 01:39:27;;;;;;;21.00;15.77;;;5.70;99.90;;;;;;4819026;28;20199;-75
2021/04/21 01:41:53;;;;;;;17.23;14.63;;;5.70;99.90;;;;;;4802651;28;20239;-75
2021/04/21 01:44:19;;;;;;;17.93;13.93;;;5.70;99.90;;;;;;4815147;28;21057;-75
2021/04/21 01:46:49;;;;;;;20.47;15.07;;;5.60;99.90;;;;;;4803536;28;20188;-76
2021/04/21 01:49:45;;;;;;;16.37;13.93;;;5.60;99.90;;;;;;4819821;28;20665;-76
2021/04/21 01:52:22;;;;;;;17.93;14.20;;;5.50;99.90;;;;;;4800907;28;20638;-76
2021/04/21 01:54:55;;;;;;;19.37;15.67;;;5.50;99.90;;;;;;4813672;28;20203;-77
2021/04/21 01:57:30;;;;;;;17.77;15.00;;;5.50;99.90;;;;;;4817810;28;20200;-78
2021/04/21 01:59:59;;;;;;;20.70;16.83;;;5.50;99.90;;;;;;4817290;28;20187;-75
2021/04/21 02:02:26;;;;;;;24.10;18.87;;;5.60;99.90;;;;;;4805871;28;20195;-75
2021/04/21 02:04:58;;;;;;;20.83;18.63;;;5.70;99.90;;;;;;4803075;28;20192;-74
2021/04/21 02:07:51;;;;;;;26.23;19.83;;;5.70;99.90;;;;;;4801509;28;20227;-75
2021/04/21 02:10:24;;;;;;;24.17;19.43;;;5.90;99.90;;;;;;4818549;28;20207;-76
2021/04/21 02:13:04;;;;;;;21.57;17.63;;;5.80;99.90;;;;;;4802014;28;20651;-75
2021/04/21 02:15:38;;;;;;;22.40;18.57;;;5.80;99.90;;;;;;4784012;28;20679;-75
2021/04/21 02:18:11;;;;;;;21.37;17.13;;;6.00;99.90;;;;;;4816962;28;20195;-77
2021/04/21 02:20:39;;;;;;;23.50;18.20;;;6.00;99.90;;;;;;4816338;28;20677;-76
2021/04/21 02:23:08;;;;;;;22.03;17.23;;;6.00;99.90;;;;;;4811287;28;20192;-76
2021/04/21 02:25:47;;;;;;;23.63;16.50;;;6.30;99.90;;;;;;4800770;28;20208;-76
2021/04/21 02:28:19;;;;;;;21.67;17.13;;;6.20;99.90;;;;;;4805719;28;20227;-77
2021/04/21 02:30:46;;;;;;;19.73;16.00;;;6.10;99.90;;;;;;4814138;28;20578;-77
2021/04/21 02:33:21;;;;;;;25.93;17.30;;;5.50;99.90;;;;;;4807665;28;20681;-75
2021/04/21 02:35:47;;;;;;;18.10;14.63;;;6.10;99.90;;;;;;4834963;28;20203;-76
2021/04/21 02:38:21;;;;;;;20.10;15.43;;;6.10;99.90;;;;;;4812492;28;20199;-75
2021/04/21 02:40:51;;;;;;;18.77;14.43;;;6.20;99.90;;;;;;4817857;28;20187;-76
2021/04/21 02:43:21;;;;;;;17.27;13.73;;;6.20;99.90;;;;;;4811117;28;20539;-77
2021/04/21 02:45:51;;;;;;;15.40;13.30;;;6.00;99.90;;;;;;4818113;28;20179;-74
2021/04/21 02:48:18;;;;;;;15.27;12.23;;;6.30;99.90;;;;;;4818789;28;20258;-77
2021/04/21 02:50:53;;;;;;;13.17;11.23;;;6.40;99.90;;;;;;4816937;28;20242;-76
2021/04/21 02:53:25;;;;;;;14.37;11.80;;;6.60;99.90;;;;;;4802623;28;20219;-78
2021/04/21 02:55:57;;;;;;;21.70;13.33;;;6.40;99.90;;;;;;4802877;28;20650;-75
2021/04/21 02:58:28;;;;;;;16.73;11.63;;;6.60;99.90;;;;;;4817872;28;20316;-76
2021/04/21 03:00:54;;;;;;;13.23;10.93;;;6.40;99.90;;;;;;4816827;28;20191;-75
2021/04/21 03:03:28;;;;;;;12.37;10.97;;;6.50;99.90;;;;;;4799233;28;20203;-75
2021/04/21 03:05:58;;;;;;;13.93;10.60;;;6.90;99.90;;;;;;4812905;28;20233;-76
2021/04/21 03:08:25;;;;;;;14.23;10.53;;;6.40;99.90;;;;;;4800349;28;20286;-76
2021/04/21 03:10:53;;;;;;;12.60;10.03;;;6.50;99.90;;;;;;4815860;28;20200;-77
2021/04/21 03:13:18;;;;;;;14.27;10.00;;;6.50;98.80;;;;;;4819482;28;20191;-76
2021/04/21 03:15:44;;;;;;;17.07;11.90;;;6.50;97.80;;;;;;4801469;28;20243;-75
2021/04/21 03:18:10;;;;;;;12.97;10.33;;;6.50;97.40;;;;;;4817048;28;20635;-77
2021/04/21 03:20:34;;;;;;;15.80;11.27;;;7.20;99.90;;;;;;4818063;28;20242;-77
2021/04/21 03:23:00;;;;;;;15.13;10.97;;;6.60;99.10;;;;;;4816872;28;20191;-75
2021/04/21 03:25:26;;;;;;;15.77;10.90;;;6.60;97.00;;;;;;4817949;28;20246;-75
2021/04/21 03:27:51;;;;;;;13.70;9.90;;;6.70;92.90;;;;;;4813927;28;20246;-75
2021/04/21 03:30:17;;;;;;;13.93;10.30;;;7.50;99.90;;;;;;4819256;28;20191;-75
2021/04/21 03:32:42;;;;;;;14.83;10.53;;;6.80;87.90;;;;;;4832811;28;20206;-76
2021/04/21 03:35:07;;;;;;;12.13;9.03;;;7.00;99.70;;;;;;4805857;28;20195;-75
2021/04/21 03:37:40;;;;;;;15.23;10.23;;;6.30;97.20;;;;;;4798769;28;20200;-77
2021/04/21 03:40:05;;;;;;;13.03;9.57;;;6.80;93.70;;;;;;4783649;28;20623;-77
2021/04/21 03:42:27;;;;;;;11.63;9.40;;;;;;;;;;4825751;28;20234;-76
2021/04/21 03:44:49;;;;;;;9.93;8.93;;;;;;;;;;4817756;28;20195;-75
2021/04/21 03:47:12;;;;;;;10.80;9.07;;;7.40;63.10;;;;;;4818260;28;20195;-76
2021/04/21 03:49:36;;;;;;;14.73;9.60;;;6.60;72.40;;;;;;4816386;28;20232;-75
2021/04/21 03:52:00;;;;;;;9.67;8.53;;;6.90;66.00;;;;;;4817261;28;20720;-75
2021/04/21 03:54:24;;;;;;;12.03;9.37;;;6.90;84.00;;;;;;4815490;28;20235;-75
2021/04/21 03:56:47;;;;;;;15.20;9.77;;;6.90;59.40;;;;;;4818115;28;20249;-74
2021/04/21 03:59:12;;;;;;;11.37;9.30;;;7.10;78.70;;;;;;4793833;28;20197;-74
2021/04/21 04:01:38;;;;;;;11.10;9.40;;;7.10;72.60;;;;;;4813000;28;20195;-75
2021/04/21 04:04:03;;;;;;;11.67;9.83;;;6.90;68.70;;;;;;4813827;28;20211;-75
2021/04/21 04:06:34;;;;;;;11.57;9.33;;;7.10;70.40;;;;;;4805968;28;20211;-76
2021/04/21 04:09:00;;;;;;;12.70;9.97;;;7.10;47.80;;;;;;4816600;28;20665;-73
2021/04/21 04:11:27;;;;;;;16.33;10.23;;;7.00;62.70;;;;;;4814074;28;20195;-76
2021/04/21 04:14:15;;;;;;;12.33;10.40;;;7.20;64.90;;;;;;4800025;28;20190;-74
2021/04/21 04:17:00;;;;;;;14.90;10.83;;;7.20;40.10;;;;;;4809954;28;20708;-73
2021/04/21 04:19:43;;;;;;;15.27;11.00;;;7.40;59.00;;;;;;4816259;28;20183;-76
2021/04/21 04:22:28;;;;;;;14.40;10.13;;;7.30;58.20;;;;;;4817729;28;20663;-77
2021/04/21 04:25:14;;;;;;;12.33;9.50;;;7.10;51.90;;;;;;4817274;28;20186;-75
2021/04/21 04:27:59;;;;;;;11.80;10.27;;;8.20;44.10;;;;;;4816021;28;20215;-76
2021/04/21 04:30:25;;;;;;;17.67;11.17;;;7.30;44.70;;;;;;4797318;28;20228;-77
2021/04/21 04:32:51;;;;;;;11.27;8.90;;;7.20;62.00;;;;;;4790144;28;20251;-74
2021/04/21 04:35:14;;;;;;;12.87;9.70;;;7.30;44.30;;;;;;4815897;28;20585;-74
2021/04/21 04:37:39;;;;;;;12.97;9.77;;;8.10;49.40;;;;;;4798222;28;20200;-76
2021/04/21 04:40:01;;;;;;;16.10;9.50;;;;;;;;;;4805515;28;20218;-76
2021/04/21 04:42:23;;;;;;;12.63;9.47;;;7.40;41.80;;;;;;4790734;28;20240;-75
2021/04/21 04:44:50;;;;;;;10.60;8.83;;;7.50;62.30;;;;;;4800012;28;20219;-76
2021/04/21 04:47:15;;;;;;;12.93;10.00;;;7.50;41.50;;;;;;4806861;28;20302;-75
2021/04/21 04:49:43;;;;;;;8.67;7.80;;;7.30;43.10;;;;;;4799732;28;20224;-74
2021/04/21 04:52:08;;;;;;;15.67;9.90;;;7.10;50.50;;;;;;4807419;28;20326;-77
2021/04/21 04:54:30;;;;;;;11.27;8.43;;;;;;;;;;4797955;28;20560;-78
2021/04/21 04:56:54;;;;;;;16.33;10.17;;;7.50;58.70;;;;;;4815271;28;20211;-75
2021/04/21 04:59:24;;;;;;;13.40;8.83;;;7.70;30.90;;;;;;4785153;28;20201;-77
2021/04/21 05:01:53;;;;;;;9.77;8.43;;;7.10;26.10;;;;;;4815081;28;20187;-74
2021/04/21 05:04:20;;;;;;;9.93;8.10;;;7.90;23.60;;;;;;4819978;28;20188;-75
2021/04/21 05:06:49;;;;;;;10.47;7.67;;;7.80;19.30;;;;;;4819956;28;20622;-75
2021/04/21 05:09:15;;;;;;;10.03;7.63;;;8.00;35.00;;;;;;4820476;28;20231;-76
2021/04/21 05:11:43;;;;;;;8.60;7.70;;;7.90;20.00;;;;;;4821392;28;20214;-76
2021/04/21 05:14:11;;;;;;;10.23;7.80;;;7.90;27.60;;;;;;4819150;28;20262;-76
2021/04/21 05:17:12;;;;;;;11.10;7.90;;;8.10;31.20;;;;;;4804452;28;20243;-75
2021/04/21 05:20:05;;;;;;;11.23;8.37;;;8.00;33.80;;;;;;4821465;28;20808;-76
2021/04/21 05:23:13;;;;;;;11.73;8.10;;;7.80;30.90;;;;;;4796951;28;20626;-76
2021/04/21 05:26:20;;;;;;;13.90;8.80;;;7.80;22.60;;;;;;4819053;28;20293;-75
2021/04/21 05:29:19;;;;;;;10.10;8.40;;;8.40;6.10;;;;;;4819822;28;20215;-76
2021/04/21 05:32:39;;;;;;;12.20;7.77;;;8.30;3.70;;;;;;4820575;28;20559;-75
2021/04/21 05:36:09;;;;;;;10.67;7.47;;;8.00;11.60;;;;;;4812397;28;20247;-77
2021/04/21 05:39:07;;;;;;;11.60;8.23;;;8.70;19.40;;;;;;4805380;28;20857;-77
2021/04/21 05:42:02;;;;;;;12.10;8.23;;;8.30;19.20;;;;;;4819468;28;20234;-77
2021/04/21 05:45:03;;;;;;;12.10;7.73;;;8.80;17.20;;;;;;4810857;28;20203;-77
2021/04/21 05:48:28;;;;;;;12.87;7.70;;;8.90;1.00;;;;;;4809400;28;20195;-76
2021/04/21 05:51:38;;;;;;;8.90;6.47;;;8.90;1.00;;;;;;4795692;28;20251;-75
2021/04/21 05:54:40;;;;;;;9.10;6.63;;;9.10;1.00;;;;;;4773513;29;20270;-75
2021/04/21 05:57:49;;;;;;;10.03;6.70;;;9.40;1.00;;;;;;4800256;28;20792;-75
2021/04/21 06:00:42;;;;;;;9.90;6.90;;;10.00;1.00;;;;;;4801018;28;20242;-75
2021/04/21 06:03:05;;;;;;;9.90;6.97;;;9.20;1.00;;;;;;4800879;28;20286;-76
2021/04/21 06:05:27;;;;;;;9.37;6.50;;;9.40;99.90;;;;;;4814883;28;20191;-75
2021/04/21 06:07:49;;;;;;;8.90;6.40;;;;;;;;;;4800682;28;20243;-75
2021/04/21 06:10:31;;;;;;;11.10;5.90;;;9.50;1.00;;;;;;4816153;28;20262;-75
2021/04/21 06:12:55;;;;;;;6.23;4.97;;;9.60;1.00;;;;;;4793975;28;20204;-76
2021/04/21 06:15:23;;;;;;;8.07;5.10;;;9.70;1.00;;;;;;4817264;28;20343;-75
2021/04/21 06:17:45;;;;;;;8.10;5.20;;;;;;;;;;4818275;28;20665;-75
2021/04/21 06:20:08;;;;;;;9.03;5.23;;;10.00;99.90;;;;;;4820309;28;20196;-76
2021/04/21 06:22:31;;;;;;;7.03;4.93;;;;;;;;;;4817803;28;20214;-77
2021/04/21 06:25:09;;;;;;;7.00;4.17;;;10.40;1.00;;;;;;4819439;28;20191;-77
2021/04/21 06:27:33;;;;;;;10.37;5.30;;;10.60;99.90;;;;;;4800023;28;20709;-80
2021/04/21 06:30:03;;;;;;;4.90;3.80;;;11.10;1.00;;;;;;4799499;28;20231;-78
2021/04/21 06:32:25;;;;;;;9.30;4.77;;;10.70;1.00;;;;;;4801723;28;20580;-75
2021/04/21 06:34:47;;;;;;;5.73;3.47;;;;;;;;;;4818223;28;20225;-75
2021/04/21 06:37:10;;;;;;;5.23;3.43;;;;;;;;;;4817460;28;20291;-78
2021/04/21 06:39:33;;;;;;;7.73;4.23;;;11.60;1.00;;;;;;4817464;28;20203;-77
2021/04/21 06:41:56;;;;;;;7.20;3.83;;;11.80;99.90;;;;;;4818579;28;20227;-76
2021/04/21 06:44:30;;;;;;;4.97;3.27;;;11.80;99.90;;;;;;4819937;28;20191;-76
2021/04/21 06:46:52;;;;;;;14.53;5.13;;;12.00;99.90;;;;;;4817661;28;20186;-76
2021/04/21 06:49:15;;;;;;;12.93;4.87;;;;;;;;;;4797833;28;20570;-80
2021/04/21 06:51:37;;;;;;;4.97;2.70;;;;;;;;;;4819694;28;20803;-76
2021/04/21 06:54:01;;;;;;;5.83;2.70;;;12.40;1.00;;;;;;4816319;28;20202;-77
2021/04/21 06:56:30;;;;;;;10.27;3.83;;;12.70;99.90;;;;;;4811524;28;20196;-77
2021/04/21 06:58:52;;;;;;;6.73;2.73;;;;;;;;;;4799648;28;20191;-74
2021/04/21 07:01:18;;;;;;;5.57;2.73;;;12.80;1.00;;;;;;4814731;28;20195;-77
2021/04/21 07:03:41;;;;;;;4.50;2.60;;;12.20;99.90;;;;;;4820134;28;20238;-79
2021/04/21 07:06:03;;;;;;;4.83;2.37;;;12.80;99.90;;;;;;4800631;28;20200;-76
2021/04/21 07:08:29;;;;;;;9.07;3.40;;;12.80;1.00;;;;;;4813850;28;20266;-75
2021/04/21 07:10:53;;;;;;;8.10;3.23;;;12.70;1.00;;;;;;4829261;28;20207;-75
2021/04/21 07:13:20;;;;;;;7.90;3.33;;;12.70;1.00;;;;;;4816474;28;21002;-75
2021/04/21 07:15:43;;;;;;;5.93;2.80;;;;;;;;;;4812328;28;20715;-78
2021/04/21 07:18:10;;;;;;;5.03;2.27;;;13.00;1.00;;;;;;4817170;28;20566;-76
2021/04/21 07:20:34;;;;;;;10.90;4.10;;;12.90;1.00;;;;;;4815734;28;20203;-75
2021/04/21 07:22:57;;;;;;;7.83;3.13;;;13.00;1.00;;;;;;4818361;28;20712;-75
2021/04/21 07:25:20;;;;;;;5.77;2.47;;;13.20;1.00;;;;;;4794674;28;20200;-76
2021/04/21 07:27:44;;;;;;;6.13;2.57;;;13.30;1.00;;;;;;4813279;28;20215;-75
2021/04/21 07:30:07;;;;;;;5.37;2.33;;;13.50;99.90;;;;;;4817899;28;20207;-76
2021/04/21 07:32:32;;;;;;;8.23;2.63;;;;;;;;;;4816997;28;20210;-75
2021/04/21 07:35:00;;;;;;;6.53;2.30;;;13.90;99.90;;;;;;4807209;28;20199;-76
2021/04/21 07:37:33;;;;;;;12.10;3.63;;;14.10;1.00;;;;;;4804129;28;20194;-75
2021/04/21 07:39:55;;;;;;;5.47;2.13;;;;;;;;;;4817558;28;20233;-78
2021/04/21 07:42:19;;;;;;;9.27;2.83;;;14.50;1.00;;;;;;4814468;28;20232;-78
2021/04/21 07:44:50;;;;;;;4.83;1.90;;;;;;;;;;4813508;28;20633;-78
2021/04/21 07:47:13;;;;;;;8.13;2.40;;;14.70;1.00;;;;;;4798473;28;20207;-79
2021/04/21 07:49:37;;;;;;;9.27;2.43;;;14.80;1.00;;;;;;4801468;28;20298;-78
2021/04/21 07:52:00;;;;;;;7.77;2.47;;;15.00;1.00;;;;;;4817591;28;20249;-77
2021/04/21 07:54:24;;;;;;;9.10;2.70;;;15.20;1.00;;;;;;4816471;28;20184;-78
2021/04/21 07:57:02;;;;;;;13.93;3.43;;;15.30;1.00;;;;;;4816407;28;20246;-76
2021/04/21 07:59:26;;;;;;;9.00;2.47;;;15.60;1.00;;;;;;4817290;28;20214;-75
2021/04/21 08:01:49;;;;;;;5.87;1.73;;;15.80;1.00;;;;;;4826133;28;20242;-76
2021/04/21 08:04:23;;;;;;;10.27;2.60;;;16.00;1.00;;;;;;4811940;28;20704;-78
2021/04/21 08:06:46;;;;;;;13.93;3.43;;;;;;;;;;4783463;28;20240;-75
2021/04/21 08:09:10;;;;;;;8.53;2.13;;;16.20;1.00;;;;;;4813921;28;20747;-75
2021/04/21 08:11:32;;;;;;;7.93;2.10;;;;;;;;;;4818627;28;20255;-74
2021/04/21 08:13:54;;;;;;;12.17;2.57;;;;;;;;;;4799603;28;20225;-74
2021/04/21 08:16:21;;;;;;;6.47;1.63;;;16.50;1.00;;;;;;4817352;28;20192;-75
2021/04/21 08:18:44;;;;;;;5.40;1.73;;;;;;;;;;4817499;28;20187;-75
2021/04/21 08:21:06;;;;;;;7.77;2.20;;;17.70;1.00;;;;;;4800156;28;20617;-74
2021/04/21 08:23:30;;;;;;;10.67;2.73;;;16.50;1.00;;;;;;4817378;28;20550;-75
2021/04/21 08:25:53;;;;;;;4.77;1.37;;;16.50;99.90;;;;;;4815516;28;20243;-75
2021/04/21 08:28:16;;;;;;;3.10;1.17;;;;;;;;;;4818068;28;20250;-75
2021/04/21 08:30:38;;;;;;;1.73;0.80;;;;;;;;;;4814451;28;20214;-79
2021/04/21 08:33:00;;;;;;;8.27;2.07;;;;;;;;;;4805731;28;20203;-75
2021/04/21 08:35:23;;;;;;;12.07;2.90;;;;;;;;;;4820678;28;20183;-73
2021/04/21 08:37:46;;;;;;;4.23;1.37;;;17.50;99.90;;;;;;4820456;28;20195;-77
2021/04/21 08:40:09;;;;;;;6.33;1.67;;;17.80;99.90;;;;;;4824582;28;21744;-76
2021/04/21 08:42:33;;;;;;;6.63;1.73;;;18.00;99.90;;;;;;4822088;28;20834;-76
2021/04/21 08:44:55;;;;;;;5.73;1.47;;;18.00;99.90;;;;;;4824208;28;20234;-76
2021/04/21 08:47:18;;;;;;;7.77;1.80;;;18.40;99.90;;;;;;4821690;28;20191;-74
2021/04/21 08:49:41;;;;;;;5.73;1.30;;;;;;;;;;4822535;28;20694;-77
2021/04/21 08:52:04;;;;;;;5.80;1.33;;;18.90;99.90;;;;;;4823453;28;20628;-73
2021/04/21 08:54:29;;;;;;;13.80;2.67;;;19.30;99.90;;;;;;4821481;28;20281;-77
2021/04/21 08:56:54;;;;;;;23.00;4.17;;;19.80;99.90;;;;;;4822829;28;20253;-77
2021/04/21 08:59:17;;;;;;;9.50;1.83;;;20.00;99.90;;;;;;4821442;28;20245;-77
2021/04/21 09:01:40;;;;;;;5.67;1.17;;;;;;;;;;4804582;28;20223;-79
2021/04/21 09:04:02;;;;;;;6.87;1.40;;;;;;;;;;4821652;28;20223;-76
2021/04/21 09:06:25;;;;;;;15.57;2.73;;;;;;;;;;4811323;28;20196;-76
2021/04/21 09:08:48;;;;;;;8.53;1.53;;;21.20;99.90;;;;;;4804414;28;20719;-76
2021/04/21 09:11:10;;;;;;;10.30;1.70;;;;;;;;;;4822938;28;20208;-77
2021/04/21 09:13:33;;;;;;;17.77;2.77;;;;;;;;;;4822654;28;20192;-77
2021/04/21 09:15:57;;;;;;;8.03;1.33;;;22.60;99.90;;;;;;4820380;28;20233;-85
2021/04/21 09:18:26;;;;;;;29.17;4.30;;;22.50;1.00;;;;;;4819203;28;20312;-76
2021/04/21 09:20:49;;;;;;;12.23;2.00;;;;;;;;;;4821786;28;20221;-77
2021/04/21 09:23:13;;;;;;;10.83;1.80;;;23.30;99.90;;;;;;4819935;28;20191;-76
2021/04/21 09:25:37;;;;;;;17.10;2.77;;;23.30;99.90;;;;;;4806463;28;20199;-77
2021/04/21 09:27:59;;;;;;;6.43;1.13;;;;;;;;;;4819878;28;20217;-79
2021/04/21 09:30:22;;;;;;;11.13;1.90;;;23.80;1.00;;;;;;4794264;28;20223;-76
2021/04/21 09:32:52;;;;;;;7.03;1.23;;;24.10;99.90;;;;;;4805800;28;20237;-79
2021/04/21 09:35:20;;;;;;;8.67;1.57;;;24.70;99.90;;;;;;4821614;28;20637;-86
2021/04/21 09:37:43;;;;;;;10.23;1.53;;;;;;;;;;4817202;28;20211;-83
2021/04/21 09:40:06;;;;;;;36.30;4.43;;;27.30;99.90;;;;;;4837600;28;20643;-77
2021/04/21 09:42:29;;;;;;;47.30;30.10;;;;;;;;;;4821588;28;20624;-78
2021/04/21 09:44:52;;;;;;;18.63;3.63;;;;;;;;;;4819478;28;20214;-82
2021/04/21 09:47:16;;;;;;;22.03;5.13;;;;;;;;;;4819338;28;20186;-77
2021/04/21 09:49:40;;;;;;;56.43;50.77;;;32.50;99.90;;;;;;4800156;28;20226;-77
2021/04/21 09:52:29;;;;;;;190.90;177.57;;;32.90;99.90;;;;;;4808978;28;20191;-80
2021/04/21 09:54:52;;;;;;;317.10;288.37;;;32.30;99.90;;;;;;4819615;28;20234;-76
2021/04/21 09:57:16;;;;;;;164.23;151.20;;;32.10;99.90;;;;;;4820185;28;20190;-80
2021/04/21 09:59:39;;;;;;;224.80;209.43;;;32.00;99.90;;;;;;4819598;28;20279;-81
2021/04/21 10:02:02;;;;;;;85.20;78.67;;;;;;;;;;4816114;28;20191;-83
2021/04/21 10:04:26;;;;;;;49.78;35.13;;;;;;;;;;4835932;28;20237;-79
2021/04/21 10:06:51;;;;;;;183.07;167.57;;;32.30;99.90;;;;;;4818733;28;20258;-76
2021/04/21 10:09:30;;;;;;;96.57;89.60;;;31.50;99.90;;;;;;4819350;28;20301;-74
2021/04/21 10:11:53;;;;;;;69.87;46.93;;;;;;;;;;4801805;28;20199;-78
2021/04/21 10:14:15;;;;;;;18.17;7.38;;;;;;;;;;4820110;28;20191;-79
2021/04/21 10:16:37;;;;;;;17.15;3.40;;;;;;;;;;4825265;28;20217;-78
2021/04/21 10:19:00;;;;;;;14.93;2.05;;;;;;;;;;4802704;28;20199;-77
2021/04/21 10:21:22;;;;;;;28.17;7.40;;;;;;;;;;4820596;28;20191;-75
2021/04/21 10:23:46;;;;;;;75.70;70.32;;;34.80;99.90;;;;;;4819022;28;20600;-85
2021/04/21 10:26:10;;;;;;;278.52;259.80;;;35.90;99.90;;;;;;4815235;28;20229;-77
2021/04/21 10:28:33;;;;;;;447.83;401.13;;;;;;;;;;4792507;28;20299;-76
2021/04/21 10:30:55;;;;;;;417.00;381.38;;;;;;;;;;4816842;28;20711;-81
2021/04/21 10:33:18;;;;;;;450.88;405.83;;;38.40;99.90;;;;;;4799321;28;20204;-78
2021/04/21 10:35:41;;;;;;;192.60;179.20;;;;;;;;;;4799567;28;20258;-77
2021/04/21 10:38:03;;;;;;;97.32;89.95;;;;;;;;;;4799643;28;20647;-77
2021/04/21 10:40:29;;;;;;;275.77;253.88;;;40.50;99.90;;;;;;4808050;28;20207;-83
2021/04/21 10:42:52;;;;;;;181.95;171.65;;;40.70;99.90;;;;;;4814165;28;20249;-78
2021/04/21 10:45:16;;;;;;;480.20;436.67;;;40.60;99.90;;;;;;4811705;28;20204;-78
2021/04/21 10:47:44;;;;;;;452.35;415.20;;;40.70;99.90;;;;;;4805087;28;20207;-79
2021/04/21 10:50:08;;;;;;;509.73;458.73;;;;;;;;;;4801092;28;20291;-77
2021/04/21 10:52:36;;;;;;;411.05;380.60;;;39.60;99.90;;;;;;4816189;28;20278;-86
2021/04/21 10:55:01;;;;;;;474.75;425.85;;;39.60;99.90;;;;;;4810454;28;20297;-79
2021/04/21 10:57:35;;;;;;;469.55;418.83;;;39.50;99.90;;;;;;4818442;28;20260;-80
2021/04/21 11:00:11;;;;;;;483.80;430.45;;;39.90;99.90;;;;;;4818197;28;20234;-79
2021/04/21 11:02:46;;;;;;;495.27;438.58;;;40.90;99.90;;;;;;4816695;28;20207;-83
2021/04/21 11:05:10;;;;;;;510.30;459.25;;;41.60;99.90;;;;;;4816816;28;20203;-77
2021/04/21 11:07:35;;;;;;;498.08;443.77;;;41.20;99.90;;;;;;4815977;28;20246;-80
2021/04/21 11:09:58;;;;;;;496.33;443.35;;;;;;;;;;4818082;28;20219;-78
2021/04/21 11:12:51;;;;;;;495.83;442.75;;;41.40;99.90;;;;;;4819392;28;20199;-77
2021/04/21 11:15:13;;;;;;;497.20;444.77;;;41.60;99.90;;;;;;4814127;28;20677;-79
2021/04/21 11:18:35;;;;;;;451.00;414.00;;;40.80;99.90;;;;;;4797058;28;20295;-79
2021/04/21 11:21:05;;;;;;;460.00;422.65;;;39.30;99.90;;;;;;4815527;28;20230;-77
2021/04/21 11:23:48;;;;;;;310.05;291.17;;;39.70;99.90;;;;;;4819613;28;20176;-83
2021/04/21 11:26:43;;;;;;;215.25;203.57;;;40.60;99.90;;;;;;4802702;28;20262;-76
2021/04/21 11:29:08;;;;;;;191.20;180.45;;;41.20;99.90;;;;;;4817705;28;20199;-78
2021/04/21 11:32:07;;;;;;;237.20;222.40;;;41.40;99.90;;;;;;4815247;28;20203;-78
2021/04/21 11:34:32;;;;;;;259.95;244.60;;;42.70;99.90;;;;;;4799493;28;20733;-84
2021/04/21 11:36:54;;;;;;;349.25;325.83;;;;;;;;;;4799945;28;20227;-84
2021/04/21 11:39:55;;;;;;;277.77;262.52;;;45.10;99.90;;;;;;4787320;28;21002;-79
2021/04/21 11:42:20;;;;;;;478.05;437.25;;;45.30;99.90;;;;;;4808810;28;20702;-79
2021/04/21 11:45:00;;;;;;;466.20;432.60;;;45.20;99.90;;;;;;4799238;28;20199;-80
2021/04/21 11:47:33;;;;;;;384.60;361.10;;;44.00;99.90;;;;;;4800153;28;20688;-79
2021/04/21 11:50:06;;;;;;;317.65;299.58;;;44.60;99.90;;;;;;4804848;28;20258;-81
2021/04/21 11:52:53;;;;;;;256.30;242.00;;;43.80;99.90;;;;;;4817358;28;20203;-82
2021/04/21 11:55:30;;;;;;;148.65;140.45;;;43.70;99.90;;;;;;4817885;28;20676;-77
2021/04/21 11:57:54;;;;;;;86.72;80.90;;;44.40;99.90;;;;;;4816767;28;20179;-80
2021/04/21 12:00:20;;;;;;;70.00;65.28;;;44.00;99.90;;;;;;4796132;28;20200;-79
2021/04/21 12:02:43;;;;;;;57.35;52.75;;;44.50;99.90;;;;;;4816540;28;20187;-81
2021/04/21 12:05:06;;;;;;;30.30;26.85;;;45.40;99.90;;;;;;4807054;28;20207;-81
2021/04/21 12:07:28;;;;;;;28.08;15.95;;;;;;;;;;4813265;28;20191;-74
2021/04/21 12:09:52;;;;;;;18.88;12.18;;;46.30;99.90;;;;;;4807328;28;20261;-81
2021/04/21 12:12:23;;;;;;;29.42;15.60;;;46.10;99.90;;;;;;4817027;28;20237;-78
2021/04/21 12:14:45;;;;;;;16.42;7.85;;;;;;;;;;4799140;28;20188;-75
2021/04/21 12:17:10;;;;;;;12.20;5.32;;;44.90;99.90;;;;;;4815698;28;20242;-86
2021/04/21 12:19:33;;;;;;;27.65;4.25;;;;;;;;;;4796456;28;20299;-80
2021/04/21 12:21:55;;;;;;;11.93;2.47;;;;;;;;;;4816319;28;20284;-77
2021/04/21 12:24:17;;;;;;;13.20;3.40;;;;;;;;;;4817289;28;20203;-79
2021/04/21 12:26:42;;;;;;;8.55;1.73;;;46.70;99.90;;;;;;4817345;28;20195;-78
2021/04/21 12:29:07;;;;;;;23.42;10.27;;;46.10;99.90;;;;;;4815648;28;20654;-78
2021/04/21 12:31:31;;;;;;;19.40;3.28;;;45.20;99.90;;;;;;4805858;28;20223;-77
2021/04/21 12:33:55;;;;;;;12.02;1.90;;;43.70;99.90;;;;;;4797118;28;20274;-80
2021/04/21 12:36:18;;;;;;;12.77;1.88;;;41.80;99.90;;;;;;4815295;28;20187;-79
2021/04/21 12:38:41;;;;;;;11.10;1.65;;;40.80;99.90;;;;;;4816523;28;20218;-84
2021/04/21 12:41:06;;;;;;;33.13;4.22;;;41.10;99.90;;;;;;4817795;28;20593;-79
2021/04/21 12:43:30;;;;;;;21.10;2.78;;;40.90;99.90;;;;;;4815156;28;20289;-77
2021/04/21 12:45:53;;;;;;;11.02;1.52;;;;;;;;;;4814630;28;20242;-82
2021/04/21 12:48:26;;;;;;;14.07;1.92;;;36.60;99.90;;;;;;4798409;28;20678;-86
2021/04/21 12:50:50;;;;;;;18.05;2.38;;;34.00;99.90;;;;;;4817026;28;20262;-81
2021/04/21 12:53:13;;;;;;;8.30;1.33;;;31.60;99.90;;;;;;4815181;28;20249;-82
2021/04/21 12:55:36;;;;;;;23.63;3.20;;;;;;;;;;4815972;28;20180;-82
2021/04/21 12:57:58;;;;;;;13.30;1.90;;;27.90;1.00;;;;;;4816507;28;20235;-82
2021/04/21 13:00:25;;;;;;;11.35;1.67;;;25.60;99.90;;;;;;4817096;28;20697;-76
2021/04/21 13:02:51;;;;;;;28.67;3.70;;;24.00;99.90;;;;;;4815491;28;20658;-79
2021/04/21 13:05:14;;;;;;;13.47;1.87;;;22.90;99.90;;;;;;4805896;28;20191;-90
2021/04/21 13:07:37;;;;;;;19.33;2.63;;;22.00;99.90;;;;;;4797319;28;20204;-78